createdAt,value
2018-11-04T00:00:24.098Z,21.48
2018-11-04T00:02:53.145Z,21.20
2018-11-04T00:05:21.973Z,20.30
2018-11-04T00:07:51.437Z,26.10
2018-11-04T00:10:20.303Z,19.20
2018-11-04T00:12:49.142Z,19.10
2018-11-04T00:15:17.979Z,21.23
2018-11-04T00:17:47.055Z,26.53
2018-11-04T00:20:16.077Z,22.00
2018-11-04T00:22:44.999Z,18.50
2018-11-04T00:25:14.555Z,19.02
2018-11-04T00:27:43.381Z,18.20
2018-11-04T00:30:13.875Z,19.13
2018-11-04T00:32:43.177Z,22.20
2018-11-04T00:35:12.257Z,19.33
2018-11-04T00:37:41.124Z,20.43
2018-11-04T00:40:10.387Z,20.53
2018-11-04T00:42:39.272Z,20.13
2018-11-04T00:45:15.761Z,21.30
2018-11-04T00:47:44.549Z,19.40
2018-11-04T00:50:15.902Z,19.97
2018-11-04T00:52:44.922Z,22.60
2018-11-04T00:55:14.076Z,21.30
2018-11-04T00:57:43.446Z,19.27
2018-11-04T01:00:15.211Z,20.60
2018-11-04T01:02:45.021Z,19.77
2018-11-04T01:05:13.846Z,24.80
2018-11-04T01:07:42.737Z,21.33
2018-11-04T01:10:12.294Z,19.23
2018-11-04T01:12:41.803Z,19.07
2018-11-04T01:15:11.933Z,19.87
2018-11-04T01:17:41.846Z,22.93
2018-11-04T01:20:13.249Z,22.10
2018-11-04T01:22:42.285Z,23.50
2018-11-04T01:25:11.130Z,20.97
2018-11-04T01:27:40.041Z,25.57
2018-11-04T01:30:11.888Z,20.77
2018-11-04T01:32:40.660Z,21.37
2018-11-04T01:35:09.498Z,22.33
2018-11-04T01:37:38.753Z,21.97
2018-11-04T01:40:09.721Z,22.87
2018-11-04T01:42:38.971Z,22.13
2018-11-04T01:45:10.422Z,24.43
2018-11-04T01:47:39.346Z,21.77
2018-11-04T01:50:11.538Z,23.63
2018-11-04T01:52:40.374Z,24.90
2018-11-04T01:55:10.012Z,22.90
2018-11-04T01:57:39.170Z,22.67
2018-11-04T02:00:12.458Z,22.13
2018-11-04T02:02:42.618Z,23.23
2018-11-04T02:05:12.076Z,22.87
2018-11-04T02:07:41.097Z,24.00
2018-11-04T02:10:12.144Z,22.80
2018-11-04T02:12:40.945Z,22.60
2018-11-04T02:15:11.547Z,21.47
2018-11-04T02:17:40.839Z,24.23
2018-11-04T02:20:11.317Z,22.47
2018-11-04T02:22:40.458Z,24.27
2018-11-04T02:25:10.478Z,25.00
2018-11-04T02:27:39.479Z,24.17
2018-11-04T02:30:12.053Z,23.75
2018-11-04T02:32:41.231Z,24.63
2018-11-04T02:35:10.063Z,23.63
2018-11-04T02:37:39.634Z,24.03
2018-11-04T02:40:08.511Z,26.37
2018-11-04T02:42:37.614Z,27.37
2018-11-04T02:45:07.974Z,24.53
2018-11-04T02:47:37.249Z,31.13
2018-11-04T02:50:09.271Z,22.37
2018-11-04T02:52:38.098Z,24.70
2018-11-04T02:55:07.509Z,27.02
2018-11-04T02:57:36.798Z,23.67
2018-11-04T03:00:08.998Z,25.10
2018-11-04T03:02:37.829Z,24.10
2018-11-04T03:05:09.860Z,24.45
2018-11-04T03:07:45.043Z,24.53
2018-11-04T03:10:14.676Z,22.07
2018-11-04T03:12:43.512Z,25.57
2018-11-04T03:15:12.659Z,26.02
2018-11-04T03:17:41.494Z,24.20
2018-11-04T03:20:10.311Z,26.53
2018-11-04T03:22:39.163Z,25.77
2018-11-04T03:25:08.903Z,25.95
2018-11-04T03:27:37.697Z,23.80
2018-11-04T03:30:08.295Z,25.92
2018-11-04T03:32:37.114Z,25.47
2018-11-04T03:35:06.045Z,28.03
2018-11-04T03:37:35.448Z,25.37
2018-11-04T03:45:03.415Z,23.60
2018-11-04T03:47:32.258Z,25.27
2018-11-04T03:50:01.050Z,26.80
2018-11-04T03:52:29.877Z,25.97
2018-11-04T03:54:58.713Z,25.20
2018-11-04T03:57:27.549Z,30.47
2018-11-04T03:59:56.614Z,26.40
2018-11-04T04:02:25.458Z,24.77
2018-11-04T04:04:54.278Z,26.23
2018-11-04T04:07:23.596Z,24.30
2018-11-04T04:09:52.490Z,28.13
2018-11-04T04:12:21.311Z,26.48
2018-11-04T04:14:50.168Z,25.93
2018-11-04T04:17:19.009Z,26.50
2018-11-04T04:19:47.828Z,27.60
2018-11-04T04:22:17.959Z,26.90
2018-11-04T04:24:46.773Z,26.63
2018-11-04T04:27:15.593Z,30.97
2018-11-04T04:29:44.475Z,28.17
2018-11-04T04:32:13.344Z,27.67
2018-11-04T04:34:42.160Z,26.90
2018-11-04T04:37:11.021Z,28.30
2018-11-04T04:39:39.943Z,27.87
2018-11-04T04:42:08.763Z,30.17
2018-11-04T04:44:37.884Z,27.87
2018-11-04T04:47:06.805Z,27.83
2018-11-04T04:49:35.656Z,28.40
2018-11-04T04:52:04.535Z,28.43
2018-11-04T04:54:33.370Z,31.70
2018-11-04T04:57:02.235Z,30.83
2018-11-04T04:59:31.098Z,29.27
2018-11-04T05:01:59.922Z,29.67
2018-11-04T05:04:28.753Z,29.87
2018-11-04T05:06:58.186Z,27.67
2018-11-04T05:09:27.403Z,26.63
2018-11-04T05:11:56.213Z,26.73
2018-11-04T05:14:25.108Z,29.57
2018-11-04T05:17:00.559Z,29.10
2018-11-04T05:19:29.427Z,27.20
2018-11-04T05:21:58.251Z,27.63
2018-11-04T05:24:27.076Z,28.97
2018-11-04T05:26:56.391Z,28.10
2018-11-04T05:29:25.242Z,28.73
2018-11-04T05:31:54.068Z,26.97
2018-11-04T05:34:22.968Z,27.97
2018-11-04T05:36:51.796Z,31.57
2018-11-04T05:39:20.590Z,28.60
2018-11-04T05:41:49.465Z,32.67
2018-11-04T05:44:18.316Z,34.90
2018-11-04T05:46:47.171Z,31.13
2018-11-04T05:49:16.295Z,30.10
2018-11-04T05:51:45.140Z,29.57
2018-11-04T05:54:14.202Z,31.67
2018-11-04T05:56:43.067Z,30.00
2018-11-04T05:59:11.879Z,32.90
2018-11-04T06:01:40.719Z,31.43
2018-11-04T06:04:09.549Z,32.63
2018-11-04T06:06:38.361Z,30.23
2018-11-04T06:09:08.882Z,30.93
2018-11-04T06:11:38.491Z,31.50
2018-11-04T06:14:07.615Z,30.27
2018-11-04T06:16:36.440Z,32.50
2018-11-04T06:19:05.697Z,30.17
2018-11-04T06:21:34.545Z,33.70
2018-11-04T06:24:03.359Z,30.93
2018-11-04T06:26:32.248Z,31.83
2018-11-04T06:29:01.068Z,28.83
2018-11-04T06:31:29.882Z,31.80
2018-11-04T06:33:59.174Z,34.57
2018-11-04T06:36:28.008Z,31.67
2018-11-04T06:38:56.865Z,30.23
2018-11-04T06:41:25.709Z,34.47
2018-11-04T06:43:54.616Z,36.37
2018-11-04T06:46:23.946Z,31.37
2018-11-04T06:48:52.815Z,36.10
2018-11-04T06:51:21.663Z,29.83
2018-11-04T06:53:50.499Z,32.47
2018-11-04T06:56:20.039Z,34.83
2018-11-04T06:58:48.932Z,33.57
2018-11-04T07:01:17.751Z,35.07
2018-11-04T07:04:03.817Z,34.40
2018-11-04T07:06:32.663Z,34.87
2018-11-04T07:09:01.552Z,31.93
2018-11-04T07:11:30.735Z,32.63
2018-11-04T07:14:00.055Z,32.00
2018-11-04T07:16:28.889Z,37.37
2018-11-04T07:18:57.803Z,35.13
2018-11-04T07:21:26.626Z,37.20
2018-11-04T07:23:55.478Z,33.33
2018-11-04T07:26:24.396Z,33.60
2018-11-04T07:28:53.251Z,34.10
2018-11-04T07:31:22.123Z,35.67
2018-11-04T07:33:51.075Z,36.47
2018-11-04T07:36:19.927Z,40.40
2018-11-04T07:38:48.755Z,38.33
2018-11-04T07:41:17.878Z,36.70
2018-11-04T07:43:46.725Z,36.23
2018-11-04T07:46:15.598Z,38.43
2018-11-04T07:48:44.414Z,39.70
2018-11-04T07:51:13.247Z,37.57
2018-11-04T07:53:42.144Z,41.40
2018-11-04T07:56:11.116Z,43.63
2018-11-04T07:58:39.982Z,38.33
2018-11-04T08:01:08.800Z,43.03
2018-11-04T08:03:37.683Z,42.23
2018-11-04T08:06:06.533Z,42.97
2018-11-04T08:08:36.375Z,37.83
2018-11-04T08:11:05.319Z,44.13
2018-11-04T08:13:34.208Z,44.77
2018-11-04T08:16:03.416Z,46.97
2018-11-04T08:18:32.560Z,44.10
2018-11-04T08:21:01.409Z,46.90
2018-11-04T08:23:30.235Z,48.77
2018-11-04T08:26:00.070Z,44.30
2018-11-04T08:28:28.895Z,48.17
2018-11-04T08:30:57.724Z,48.38
2018-11-04T08:33:26.535Z,43.87
2018-11-04T08:35:55.380Z,49.87
2018-11-04T08:38:24.267Z,49.97
2018-11-04T08:40:53.247Z,51.97
2018-11-04T08:43:22.082Z,47.43
2018-11-04T08:45:51.038Z,51.03
2018-11-04T08:48:19.815Z,48.73
2018-11-04T08:50:48.636Z,52.30
2018-11-04T08:53:17.506Z,51.27
2018-11-04T08:55:46.348Z,46.70
2018-11-04T08:58:15.151Z,59.87
2018-11-04T09:00:44.051Z,48.60
2018-11-04T09:03:13.171Z,53.57
2018-11-04T09:05:42.035Z,53.13
2018-11-04T09:08:10.887Z,50.47
2018-11-04T09:10:39.780Z,51.07
2018-11-04T09:13:08.668Z,54.43
2018-11-04T09:15:37.475Z,48.83
2018-11-04T09:18:06.747Z,52.40
2018-11-04T09:20:35.596Z,52.53
2018-11-04T09:23:04.479Z,50.00
2018-11-04T09:25:33.678Z,49.07
2018-11-04T09:28:02.481Z,56.13
2018-11-04T09:30:31.315Z,55.70
2018-11-04T09:33:00.150Z,49.33
2018-11-04T09:35:29.127Z,51.67
2018-11-04T09:37:57.800Z,53.57
2018-11-04T09:40:26.650Z,55.15
2018-11-04T09:42:55.487Z,49.93
2018-11-04T09:45:24.330Z,53.90
2018-11-04T09:47:53.686Z,58.33
2018-11-04T09:50:22.541Z,50.03
2018-11-04T09:52:52.368Z,53.30
2018-11-04T09:55:21.231Z,53.60
2018-11-04T09:57:50.059Z,47.10
2018-11-04T10:00:18.962Z,53.73
2018-11-04T10:02:47.841Z,54.67
2018-11-04T10:05:16.731Z,47.27
2018-11-04T10:07:45.585Z,55.00
2018-11-04T10:10:15.452Z,50.40
2018-11-04T10:12:44.855Z,54.17
2018-11-04T10:15:13.671Z,59.30
2018-11-04T10:17:42.738Z,56.50
2018-11-04T10:20:13.003Z,49.70
2018-11-04T10:22:42.054Z,50.87
2018-11-04T10:25:12.072Z,52.07
2018-11-04T10:27:41.580Z,50.37
2018-11-04T10:30:13.686Z,49.67
2018-11-04T10:32:42.462Z,52.10
2018-11-04T10:35:11.527Z,53.47
2018-11-04T10:37:41.150Z,54.20
2018-11-04T10:40:11.078Z,47.73
2018-11-04T10:42:39.956Z,51.93
2018-11-04T10:45:10.339Z,55.75
2018-11-04T10:47:39.269Z,54.83
2018-11-04T10:50:10.860Z,57.40
2018-11-04T10:52:40.008Z,50.23
2018-11-04T10:55:09.923Z,52.23
2018-11-04T10:57:38.747Z,54.40
2018-11-04T11:00:15.672Z,52.93
2018-11-04T11:02:45.108Z,49.43
2018-11-04T11:05:14.040Z,56.83
2018-11-04T11:07:43.178Z,53.50
2018-11-04T11:10:12.411Z,55.33
2018-11-04T11:12:41.242Z,57.23
2018-11-04T11:15:11.116Z,52.77
2018-11-04T11:17:40.388Z,54.90
2018-11-04T11:20:10.369Z,53.20
2018-11-04T11:22:39.915Z,56.00
2018-11-04T11:25:09.151Z,55.43
2018-11-04T11:27:37.997Z,58.33
2018-11-04T11:30:09.359Z,56.23
2018-11-04T11:32:38.140Z,57.97
2018-11-04T11:35:22.915Z,60.43
2018-11-04T11:37:51.827Z,56.37
2018-11-04T11:40:20.611Z,58.53
2018-11-04T11:42:49.452Z,54.90
2018-11-04T11:45:18.307Z,62.77
2018-11-04T11:47:47.190Z,61.40
2018-11-04T11:50:16.461Z,58.20
2018-11-04T11:52:45.392Z,58.67
2018-11-04T11:55:14.138Z,57.10
2018-11-04T11:57:43.332Z,55.97
2018-11-04T12:00:12.439Z,55.48
2018-11-04T12:02:41.606Z,58.67
2018-11-04T12:05:10.865Z,62.97
2018-11-04T12:07:39.786Z,57.90
2018-11-04T12:10:12.175Z,59.15
2018-11-04T12:12:41.026Z,61.17
2018-11-04T12:15:11.043Z,60.87
2018-11-04T12:17:39.973Z,58.47
2018-11-04T12:20:10.337Z,53.80
2018-11-04T12:22:39.180Z,57.43
2018-11-04T12:25:10.483Z,54.60
2018-11-04T12:27:39.427Z,57.83
2018-11-04T12:30:11.804Z,58.90
2018-11-04T12:32:40.806Z,60.43
2018-11-04T12:35:11.099Z,59.53
2018-11-04T12:37:40.041Z,56.40
2018-11-04T12:40:10.769Z,56.83
2018-11-04T12:42:39.630Z,57.40
2018-11-04T12:45:10.450Z,56.18
2018-11-04T12:47:39.315Z,63.67
2018-11-04T12:50:09.962Z,58.85
2018-11-04T12:52:39.251Z,54.60
2018-11-04T12:55:08.938Z,61.80
2018-11-04T12:57:37.791Z,56.90
2018-11-04T13:00:11.785Z,65.25
2018-11-04T13:02:40.711Z,59.70
2018-11-04T13:05:10.440Z,59.90
2018-11-04T13:07:39.314Z,70.00
2018-11-04T13:10:11.011Z,60.25
2018-11-04T13:12:39.883Z,60.03
2018-11-04T13:15:10.503Z,56.30
2018-11-04T13:17:39.340Z,63.73
2018-11-04T13:20:09.291Z,55.23
2018-11-04T13:22:38.298Z,59.77
2018-11-04T13:25:10.308Z,61.77
2018-11-04T13:27:39.172Z,63.00
2018-11-04T13:30:11.108Z,61.27
2018-11-04T13:32:40.427Z,57.13
2018-11-04T13:35:09.275Z,59.63
2018-11-04T13:37:38.110Z,53.87
2018-11-04T13:40:09.599Z,54.88
2018-11-04T13:42:38.476Z,62.63
2018-11-04T13:50:08.908Z,54.63
2018-11-04T13:52:37.803Z,57.83
2018-11-04T13:55:07.984Z,61.33
2018-11-04T13:57:37.112Z,57.27
2018-11-04T14:00:12.285Z,54.20
2018-11-04T14:02:41.467Z,62.33
2018-11-04T14:05:10.834Z,59.73
2018-11-04T14:07:40.468Z,58.03
2018-11-04T14:10:10.939Z,60.67
2018-11-04T14:12:39.794Z,63.13
2018-11-04T14:15:08.799Z,58.25
2018-11-04T14:17:37.690Z,59.27
2018-11-04T14:20:09.546Z,64.58
2018-11-04T14:27:31.567Z,58.57
2018-11-04T14:30:00.478Z,59.60
2018-11-04T14:32:29.444Z,60.43
2018-11-04T14:34:58.351Z,61.03
2018-11-04T14:37:27.214Z,53.07
2018-11-04T14:39:56.091Z,57.00
2018-11-04T14:42:24.918Z,58.17
2018-11-04T14:44:53.734Z,57.93
2018-11-04T14:47:22.579Z,55.23
2018-11-04T14:49:51.805Z,63.13
2018-11-04T14:52:20.683Z,57.17
2018-11-04T14:54:49.499Z,55.07
2018-11-04T14:57:18.331Z,64.60
2018-11-04T14:59:47.206Z,52.97
2018-11-04T15:02:16.066Z,54.07
2018-11-04T15:04:44.901Z,57.47
2018-11-04T15:07:13.798Z,58.67
2018-11-04T15:09:42.626Z,51.67
2018-11-04T15:12:11.949Z,54.27
2018-11-04T15:14:40.767Z,58.20
2018-11-04T15:17:09.608Z,52.67
2018-11-04T15:19:38.558Z,57.50
2018-11-04T15:22:07.478Z,53.47
2018-11-04T15:24:36.352Z,58.53
2018-11-04T15:27:05.398Z,58.97
2018-11-04T15:29:34.932Z,53.10
2018-11-04T15:32:03.755Z,61.93
2018-11-04T15:34:33.242Z,56.30
2018-11-04T15:37:01.896Z,57.73
2018-11-04T15:39:37.558Z,57.63
2018-11-04T15:42:06.667Z,58.67
2018-11-04T15:44:35.602Z,64.03
2018-11-04T15:47:05.238Z,60.50
2018-11-04T15:49:34.106Z,62.10
2018-11-04T15:52:02.966Z,64.03
2018-11-04T15:54:32.175Z,62.87
2018-11-04T15:57:06.568Z,69.67
2018-11-04T15:59:35.411Z,67.17
2018-11-04T16:02:04.391Z,65.40
2018-11-04T16:04:44.542Z,69.87
2018-11-04T16:07:02.063Z,67.90
2018-11-04T16:09:30.924Z,71.60
2018-11-04T16:11:59.723Z,67.63
2018-11-04T16:14:29.810Z,72.60
2018-11-04T16:16:58.639Z,75.17
2018-11-04T16:19:27.549Z,71.07
2018-11-04T16:21:56.399Z,61.30
2018-11-04T16:24:25.340Z,68.47
2018-11-04T16:26:54.250Z,68.80
2018-11-04T16:29:23.129Z,64.33
2018-11-04T16:31:52.294Z,73.20
2018-11-04T16:34:21.068Z,69.53
2018-11-04T16:36:50.395Z,69.87
2018-11-04T16:39:19.208Z,72.30
2018-11-04T16:41:48.027Z,63.90
2018-11-04T16:44:17.179Z,69.60
2018-11-04T16:46:45.831Z,72.43
2018-11-04T16:49:14.808Z,64.37
2018-11-04T16:51:43.785Z,65.67
2018-11-04T16:54:12.703Z,66.10
2018-11-04T16:56:41.529Z,66.03
2018-11-04T16:59:10.716Z,67.60
2018-11-04T17:01:39.565Z,70.50
2018-11-04T17:04:08.480Z,70.80
2018-11-04T17:06:37.278Z,60.80
2018-11-04T17:09:08.632Z,66.00
2018-11-04T17:11:37.504Z,62.00
2018-11-04T17:14:06.342Z,63.17
2018-11-04T17:16:35.239Z,63.40
2018-11-04T17:19:04.099Z,64.50
2018-11-04T17:21:33.347Z,62.23
2018-11-04T17:24:02.195Z,58.80
2018-11-04T17:26:31.040Z,62.40
2018-11-04T17:28:59.929Z,70.30
2018-11-04T17:31:28.846Z,75.90
2018-11-04T17:33:58.078Z,64.53
2018-11-04T17:36:26.970Z,66.37
2018-11-04T17:38:55.884Z,62.80
2018-11-04T17:41:24.718Z,58.30
2018-11-04T17:43:53.900Z,63.93
2018-11-04T17:46:22.757Z,61.53
2018-11-04T17:48:51.664Z,61.87
2018-11-04T17:51:20.503Z,59.07
2018-11-04T17:53:49.313Z,55.77
2018-11-04T17:56:18.152Z,57.90
2018-11-04T17:58:46.979Z,61.10
2018-11-04T18:01:15.858Z,57.60
2018-11-04T18:03:44.647Z,60.10
2018-11-04T18:06:13.606Z,53.77
2018-11-04T18:08:42.472Z,57.97
2018-11-04T18:11:11.312Z,59.37
2018-11-04T18:13:40.155Z,57.60
2018-11-04T18:16:08.971Z,54.73
2018-11-04T18:18:37.794Z,60.37
2018-11-04T18:21:06.641Z,53.83
2018-11-04T18:23:35.475Z,57.27
2018-11-04T18:26:04.462Z,54.90
2018-11-04T18:29:07.704Z,50.97
2018-11-04T18:31:36.519Z,51.73
2018-11-04T18:34:05.970Z,55.67
2018-11-04T18:36:34.803Z,58.43
2018-11-04T18:39:03.861Z,54.07
2018-11-04T18:41:32.698Z,52.20
2018-11-04T18:44:01.660Z,54.20
2018-11-04T18:46:30.504Z,55.23
2018-11-04T18:48:59.350Z,50.33
2018-11-04T18:51:28.580Z,51.07
2018-11-04T18:53:57.423Z,51.07
2018-11-04T18:56:26.284Z,54.50
2018-11-04T18:58:55.447Z,48.37
2018-11-04T19:01:24.323Z,53.50
2018-11-04T19:03:53.180Z,50.53
2018-11-04T19:06:22.015Z,49.37
2018-11-04T19:08:50.815Z,44.97
2018-11-04T19:11:19.748Z,46.83
2018-11-04T19:13:48.755Z,43.43
2018-11-04T19:16:17.553Z,47.73
2018-11-04T19:18:46.431Z,44.87
2018-11-04T19:21:15.220Z,49.67
2018-11-04T19:23:44.069Z,46.33
2018-11-04T19:26:12.882Z,43.87
2018-11-04T19:28:41.742Z,47.17
2018-11-04T19:31:10.715Z,46.30
2018-11-04T19:33:39.503Z,47.50
2018-11-04T19:36:09.291Z,45.40
2018-11-04T19:38:38.175Z,39.63
2018-11-04T19:41:07.109Z,43.17
2018-11-04T19:43:35.935Z,39.77
2018-11-04T19:46:04.795Z,40.77
2018-11-04T19:48:33.711Z,42.33
2018-11-04T19:51:02.655Z,43.40
2018-11-04T19:53:31.395Z,42.50
2018-11-04T19:56:00.526Z,43.80
2018-11-04T19:58:29.721Z,42.40
2018-11-04T20:00:58.557Z,42.07
2018-11-04T20:03:27.415Z,41.80
2018-11-04T20:05:59.378Z,47.80
2018-11-04T20:08:28.207Z,39.93
2018-11-04T20:10:57.160Z,45.10
2018-11-04T20:13:31.317Z,46.17
2018-11-04T20:16:00.260Z,46.03
2018-11-04T20:18:34.327Z,44.40
2018-11-04T20:21:03.211Z,41.63
2018-11-04T20:23:32.037Z,45.47
2018-11-04T20:26:05.978Z,43.47
2018-11-04T20:28:34.820Z,42.13
2018-11-04T20:31:03.685Z,42.50
2018-11-04T20:33:33.652Z,40.37
2018-11-04T20:36:02.480Z,41.70
2018-11-04T20:38:37.076Z,41.63
2018-11-04T20:41:11.724Z,45.50
2018-11-04T20:43:40.555Z,43.97
2018-11-04T20:46:09.380Z,41.03
2018-11-04T20:48:44.104Z,42.70
2018-11-04T20:51:12.946Z,40.63
2018-11-04T20:53:41.814Z,40.50
2018-11-04T20:56:16.011Z,41.17
2018-11-04T20:58:44.976Z,45.73
2018-11-04T21:01:13.676Z,41.10
2018-11-04T21:03:42.687Z,37.77
2018-11-04T21:06:12.079Z,40.23
2018-11-04T21:08:40.950Z,39.87
2018-11-04T21:11:09.810Z,36.50
2018-11-04T21:13:45.126Z,36.47
2018-11-04T21:16:14.094Z,34.03
2018-11-04T21:18:42.775Z,36.73
2018-11-04T21:21:11.577Z,34.77
2018-11-04T21:23:40.424Z,35.70
2018-11-04T21:26:09.270Z,34.00
2018-11-04T21:28:38.380Z,36.97
2018-11-04T21:31:07.300Z,39.80
2018-11-04T21:33:36.136Z,36.83
2018-11-04T21:36:05.295Z,40.50
2018-11-04T21:38:34.595Z,37.13
2018-11-04T21:41:03.448Z,33.77
2018-11-04T21:43:32.566Z,35.20
2018-11-04T21:46:01.164Z,33.87
2018-11-04T21:48:29.990Z,34.80
2018-11-04T21:50:58.878Z,38.03
2018-11-04T21:53:27.833Z,32.63
2018-11-04T21:55:56.827Z,38.20
2018-11-04T21:58:25.607Z,34.73
2018-11-04T22:00:54.440Z,41.43
2018-11-04T22:03:23.461Z,35.27
2018-11-04T22:05:52.113Z,39.77
2018-11-04T22:08:20.936Z,37.73
2018-11-04T22:10:49.751Z,35.40
2018-11-04T22:13:18.608Z,38.83
2018-11-04T22:15:47.736Z,37.03
2018-11-04T22:18:16.568Z,39.93
2018-11-04T22:20:45.440Z,39.60
2018-11-04T22:23:14.260Z,41.67
2018-11-04T22:25:43.122Z,40.53
2018-11-04T22:28:11.939Z,42.23
2018-11-04T22:30:40.919Z,38.77
2018-11-04T22:33:09.783Z,44.30
2018-11-04T22:35:38.622Z,44.47
2018-11-04T22:38:08.107Z,40.37
2018-11-04T22:40:37.429Z,43.53
2018-11-04T22:43:06.247Z,39.73
2018-11-04T22:45:35.097Z,45.50
2018-11-04T22:48:03.928Z,44.60
2018-11-04T22:50:32.836Z,46.57
2018-11-04T22:53:01.676Z,42.20
2018-11-04T22:55:30.503Z,44.90
2018-11-04T22:58:06.573Z,44.77
2018-11-04T23:00:42.559Z,47.00
2018-11-04T23:03:11.867Z,46.10
2018-11-04T23:05:40.699Z,46.00
2018-11-04T23:08:10.047Z,51.27
2018-11-04T23:10:38.861Z,39.93
2018-11-04T23:13:07.680Z,46.90
2018-11-04T23:15:36.587Z,46.80
2018-11-04T23:18:05.805Z,49.83
2018-11-04T23:20:34.644Z,47.20
2018-11-04T23:23:03.468Z,44.07
2018-11-04T23:25:32.319Z,44.53
2018-11-04T23:28:01.147Z,48.53
2018-11-04T23:30:29.982Z,50.63
2018-11-04T23:32:58.802Z,46.87
2018-11-04T23:35:27.671Z,47.73
2018-11-04T23:37:56.500Z,49.20
2018-11-04T23:40:25.747Z,46.63
2018-11-04T23:42:54.959Z,50.87
2018-11-04T23:45:23.798Z,49.53
2018-11-04T23:47:52.647Z,47.83
2018-11-04T23:50:21.495Z,48.00
2018-11-04T23:52:50.323Z,52.23
2018-11-04T23:55:19.191Z,48.57
2018-11-04T23:57:48.010Z,49.37
